createdAt,value
2023-11-15T00:00:08.397Z,9.75
2023-11-15T00:02:36.215Z,9.60
2023-11-15T00:05:04.193Z,9.77
2023-11-15T00:07:31.891Z,9.78
2023-11-15T00:09:58.478Z,9.59
2023-11-15T00:12:26.117Z,9.68
2023-11-15T00:14:53.625Z,9.77
2023-11-15T00:17:20.697Z,9.77
2023-11-15T00:19:47.224Z,9.72
2023-11-15T00:22:16.236Z,9.67
2023-11-15T00:24:43.879Z,9.55
2023-11-15T00:27:11.553Z,9.70
2023-11-15T00:29:38.532Z,9.65
2023-11-15T00:32:05.964Z,9.62
2023-11-15T00:34:32.815Z,9.59
2023-11-15T00:37:00.982Z,9.58
2023-11-15T00:39:29.476Z,9.56
2023-11-15T00:41:56.481Z,9.35
2023-11-15T00:44:23.159Z,9.53
2023-11-15T00:46:49.782Z,9.50
2023-11-15T00:49:16.376Z,9.46
2023-11-15T00:51:43.134Z,9.22
2023-11-15T00:54:09.752Z,9.48
2023-11-15T00:56:36.665Z,9.45
2023-11-15T00:59:03.962Z,9.28
2023-11-15T01:01:30.607Z,9.48
2023-11-15T01:03:57.557Z,9.48
2023-11-15T01:06:25.480Z,9.49
2023-11-15T01:08:53.118Z,9.24
2023-11-15T01:11:19.936Z,9.51
2023-11-15T01:13:47.225Z,9.50
2023-11-15T01:16:14.979Z,9.53
2023-11-15T01:18:41.594Z,9.55
2023-11-15T01:21:10.174Z,9.48
2023-11-15T01:23:37.434Z,9.55
2023-11-15T01:26:04.596Z,9.59
2023-11-15T01:28:31.199Z,9.59
2023-11-15T01:30:58.395Z,9.40
2023-11-15T01:33:26.511Z,9.31
2023-11-15T01:35:53.718Z,9.48
2023-11-15T01:38:20.602Z,9.69
2023-11-15T01:40:48.545Z,9.66
2023-11-15T01:43:17.562Z,9.70
2023-11-15T01:45:47.772Z,9.74
2023-11-15T01:48:17.358Z,9.77
2023-11-15T01:50:45.348Z,9.76
2023-11-15T01:53:13.507Z,9.74
2023-11-15T01:55:40.212Z,9.81
2023-11-15T01:58:07.743Z,9.82
2023-11-15T02:00:35.248Z,9.83
2023-11-15T02:03:03.229Z,9.84
2023-11-15T02:05:29.901Z,9.84
2023-11-15T02:07:56.685Z,9.85
2023-11-15T02:10:23.417Z,9.66
2023-11-15T02:12:50.325Z,9.69
2023-11-15T02:15:17.012Z,9.71
2023-11-15T02:17:44.413Z,9.88
2023-11-15T02:20:11.462Z,9.68
2023-11-15T02:22:46.513Z,9.87
2023-11-15T02:25:13.500Z,9.82
2023-11-15T02:27:39.931Z,9.88
2023-11-15T02:30:09.786Z,9.74
2023-11-15T02:32:38.734Z,9.88
2023-11-15T02:35:05.754Z,9.84
2023-11-15T02:37:32.150Z,9.80
2023-11-15T02:39:59.312Z,9.84
2023-11-15T02:42:26.172Z,9.87
2023-11-15T02:44:53.196Z,9.87
2023-11-15T02:47:20.243Z,9.69
2023-11-15T02:49:46.835Z,9.76
2023-11-15T02:52:13.309Z,9.85
2023-11-15T02:54:39.747Z,9.65
2023-11-15T02:57:06.746Z,9.85
2023-11-15T02:59:33.202Z,9.86
2023-11-15T03:01:59.685Z,9.86
2023-11-15T03:04:26.163Z,9.86
2023-11-15T03:06:52.707Z,9.82
2023-11-15T03:09:19.183Z,9.86
2023-11-15T03:11:45.817Z,9.85
2023-11-15T03:14:12.336Z,9.55
2023-11-15T03:16:39.130Z,9.78
2023-11-15T03:19:05.663Z,9.83
2023-11-15T03:21:32.703Z,9.46
2023-11-15T03:23:59.461Z,9.78
2023-11-15T03:26:25.928Z,9.59
2023-11-15T03:28:52.408Z,9.77
2023-11-15T03:31:18.903Z,9.80
2023-11-15T03:33:48.335Z,9.71
2023-11-15T03:36:16.926Z,9.75
2023-11-15T03:38:43.738Z,9.77
2023-11-15T03:41:12.759Z,9.76
2023-11-15T03:43:42.593Z,9.79
2023-11-15T03:46:09.529Z,9.74
2023-11-15T03:48:36.024Z,9.78
2023-11-15T03:51:02.537Z,9.74
2023-11-15T03:53:31.416Z,9.44
2023-11-15T03:55:58.288Z,9.72
2023-11-15T03:58:24.773Z,9.45
2023-11-15T04:00:51.390Z,9.71
2023-11-15T04:03:22.543Z,9.67
2023-11-15T04:05:50.564Z,9.72
2023-11-15T04:08:17.150Z,9.24
2023-11-15T04:10:44.009Z,9.69
2023-11-15T04:13:10.890Z,9.74
2023-11-15T04:15:37.803Z,9.71
2023-11-15T04:18:05.128Z,9.75
2023-11-15T04:20:31.903Z,9.73
2023-11-15T04:22:58.885Z,9.73
2023-11-15T04:25:26.001Z,9.58
2023-11-15T04:27:52.934Z,9.77
2023-11-15T04:30:19.533Z,9.36
2023-11-15T04:32:48.719Z,9.76
2023-11-15T04:35:15.464Z,9.59
2023-11-15T04:37:41.950Z,9.75
2023-11-15T04:40:10.322Z,9.77
2023-11-15T04:42:37.975Z,9.78
2023-11-15T04:45:05.758Z,9.47
2023-11-15T04:47:32.635Z,9.66
2023-11-15T04:49:59.247Z,9.63
2023-11-15T04:52:26.698Z,9.54
2023-11-15T04:54:55.647Z,9.79
2023-11-15T04:57:26.176Z,9.62
2023-11-15T04:59:56.740Z,9.78
2023-11-15T05:02:24.189Z,9.74
2023-11-15T05:04:53.189Z,9.74
2023-11-15T05:07:21.400Z,9.76
2023-11-15T05:09:47.832Z,9.43
2023-11-15T05:12:17.044Z,9.71
2023-11-15T05:14:44.521Z,9.69
2023-11-15T05:17:11.931Z,9.70
2023-11-15T05:19:39.263Z,9.68
2023-11-15T05:22:05.762Z,9.61
2023-11-15T05:24:32.377Z,9.46
2023-11-15T05:26:58.916Z,9.54
2023-11-15T05:29:26.381Z,9.20
2023-11-15T05:31:52.948Z,9.45
2023-11-15T05:34:19.441Z,9.39
2023-11-15T05:36:45.987Z,9.33
2023-11-15T05:39:12.890Z,9.26
2023-11-15T05:41:39.434Z,9.21
2023-11-15T05:44:06.413Z,9.15
2023-11-15T05:46:34.788Z,9.11
2023-11-15T05:49:01.538Z,9.00
2023-11-15T05:51:28.036Z,9.07
2023-11-15T05:53:54.588Z,8.73
2023-11-15T05:56:21.438Z,8.97
2023-11-15T05:58:47.981Z,8.96
2023-11-15T06:01:15.100Z,8.89
2023-11-15T06:03:41.768Z,8.76
2023-11-15T06:06:08.749Z,8.54
2023-11-15T06:08:35.531Z,8.75
2023-11-15T06:11:02.038Z,8.68
2023-11-15T06:13:28.507Z,8.24
2023-11-15T06:15:54.943Z,8.45
2023-11-15T06:18:22.952Z,8.53
2023-11-15T06:20:51.158Z,8.43
2023-11-15T06:23:17.754Z,8.56
2023-11-15T06:25:45.557Z,8.51
2023-11-15T06:28:12.219Z,8.55
2023-11-15T06:30:38.762Z,8.35
2023-11-15T06:33:05.407Z,8.57
2023-11-15T06:35:31.906Z,8.64
2023-11-15T06:38:01.371Z,8.48
2023-11-15T06:40:27.845Z,8.69
2023-11-15T06:42:54.339Z,8.75
2023-11-15T06:45:20.779Z,8.78
2023-11-15T06:47:47.430Z,8.77
2023-11-15T06:50:14.282Z,8.67
2023-11-15T06:52:41.400Z,8.64
2023-11-15T06:55:12.246Z,8.74
2023-11-15T06:57:41.877Z,8.92
2023-11-15T07:00:10.120Z,8.93
2023-11-15T07:02:37.303Z,8.92
2023-11-15T07:05:06.285Z,8.68
2023-11-15T07:07:33.573Z,8.90
2023-11-15T07:10:00.586Z,8.94
2023-11-15T07:12:27.001Z,8.93
2023-11-15T07:14:54.248Z,8.92
2023-11-15T07:17:21.174Z,8.78
2023-11-15T07:19:49.146Z,8.71
2023-11-15T07:22:16.740Z,8.65
2023-11-15T07:24:44.743Z,8.81
2023-11-15T07:27:11.385Z,8.69
2023-11-15T07:29:38.954Z,8.68
2023-11-15T07:32:08.677Z,8.77
2023-11-15T07:34:35.349Z,8.81
2023-11-15T07:37:01.940Z,8.67
2023-11-15T07:39:28.550Z,8.87
2023-11-15T07:42:01.818Z,8.88
2023-11-15T07:44:31.125Z,8.87
2023-11-15T07:46:59.871Z,8.84
2023-11-15T07:49:28.401Z,8.49
2023-11-15T07:51:55.290Z,8.92
2023-11-15T07:54:22.420Z,8.79
2023-11-15T07:56:48.907Z,9.11
2023-11-15T07:59:15.870Z,8.80
2023-11-15T08:01:46.920Z,9.09
2023-11-15T08:04:15.452Z,8.95
2023-11-15T08:06:43.702Z,9.13
2023-11-15T08:09:24.948Z,8.96
2023-11-15T08:11:55.927Z,8.93
2023-11-15T08:14:23.005Z,9.00
2023-11-15T08:16:53.315Z,8.94
2023-11-15T08:19:19.882Z,9.09
2023-11-15T08:21:48.275Z,9.00
2023-11-15T08:24:21.901Z,9.14
2023-11-15T08:26:52.313Z,9.17
2023-11-15T08:29:20.602Z,8.88
2023-11-15T08:31:48.860Z,9.24
2023-11-15T08:34:17.293Z,9.11
2023-11-15T08:36:45.897Z,9.37
2023-11-15T08:39:16.314Z,9.32
2023-11-15T08:41:43.202Z,9.39
2023-11-15T08:44:10.489Z,9.35
2023-11-15T08:46:42.536Z,9.39
2023-11-15T08:49:11.450Z,9.55
2023-11-15T08:51:38.159Z,9.66
2023-11-15T08:54:04.798Z,9.72
2023-11-15T08:56:32.735Z,9.80
2023-11-15T08:59:00.457Z,10.23
2023-11-15T09:01:28.487Z,10.44
2023-11-15T09:03:55.167Z,10.68
2023-11-15T09:06:24.679Z,10.67
2023-11-15T09:08:51.208Z,11.00
2023-11-15T09:11:18.617Z,11.26
2023-11-15T09:13:47.105Z,11.33
2023-11-15T09:16:14.034Z,11.25
2023-11-15T09:18:43.616Z,11.27
2023-11-15T09:21:13.546Z,11.66
2023-11-15T09:23:42.725Z,11.63
2023-11-15T09:26:20.529Z,11.64
2023-11-15T09:28:48.013Z,11.57
2023-11-15T09:31:14.911Z,11.59
2023-11-15T09:33:41.608Z,11.63
2023-11-15T09:36:12.334Z,11.63
2023-11-15T09:38:40.931Z,11.66
2023-11-15T09:41:13.069Z,11.82
2023-11-15T09:43:40.976Z,11.97
2023-11-15T09:46:13.704Z,12.02
2023-11-15T09:48:53.074Z,12.18
2023-11-15T09:51:31.106Z,12.31
2023-11-15T09:54:05.033Z,12.46
2023-11-15T09:56:40.854Z,12.62
2023-11-15T09:59:07.483Z,12.72
2023-11-15T10:01:34.091Z,12.65
2023-11-15T10:04:01.853Z,12.84
2023-11-15T10:06:41.737Z,12.79
2023-11-15T10:09:09.096Z,13.06
2023-11-15T10:11:38.449Z,13.09
2023-11-15T10:14:13.237Z,13.44
2023-11-15T10:16:40.455Z,13.35
2023-11-15T10:19:30.275Z,13.62
2023-11-15T10:22:05.619Z,13.66
2023-11-15T10:24:34.640Z,13.61
2023-11-15T10:27:16.286Z,13.84
2023-11-15T10:29:46.957Z,13.90
2023-11-15T10:32:13.771Z,13.75
2023-11-15T10:34:53.094Z,13.73
2023-11-15T10:37:19.657Z,13.88
2023-11-15T10:39:47.558Z,13.70
2023-11-15T10:42:16.845Z,13.72
2023-11-15T10:44:48.826Z,13.59
2023-11-15T10:47:23.463Z,13.36
2023-11-15T10:50:06.249Z,13.44
2023-11-15T10:52:33.570Z,13.32
2023-11-15T10:55:02.128Z,13.22
2023-11-15T10:57:32.623Z,12.78
2023-11-15T11:00:07.150Z,12.84
2023-11-15T11:02:39.525Z,12.92
2023-11-15T11:05:08.912Z,12.87
2023-11-15T11:07:58.626Z,12.75
2023-11-15T11:10:39.884Z,12.57
2023-11-15T11:13:26.634Z,12.78
2023-11-15T11:15:53.240Z,12.58
2023-11-15T11:18:20.847Z,12.47
2023-11-15T11:21:13.892Z,12.86
2023-11-15T11:24:12.286Z,13.01
2023-11-15T11:26:39.184Z,13.12
2023-11-15T11:29:05.706Z,13.25
2023-11-15T11:31:32.205Z,13.32
2023-11-15T11:34:20.097Z,13.53
2023-11-15T11:36:59.743Z,13.52
2023-11-15T11:39:47.932Z,13.64
2023-11-15T11:42:25.564Z,13.41
2023-11-15T11:44:56.277Z,13.44
2023-11-15T11:47:23.362Z,13.40
2023-11-15T11:49:50.816Z,13.39
2023-11-15T11:52:18.520Z,13.44
2023-11-15T11:54:54.502Z,13.59
2023-11-15T11:57:22.614Z,13.70
2023-11-15T12:00:22.604Z,13.69
2023-11-15T12:02:54.356Z,14.02
2023-11-15T12:05:26.782Z,14.16
2023-11-15T12:07:55.607Z,14.25
2023-11-15T12:10:22.228Z,14.31
2023-11-15T12:13:05.866Z,14.32
2023-11-15T12:15:36.938Z,14.24
2023-11-15T12:18:04.116Z,14.13
2023-11-15T12:20:41.577Z,13.93
2023-11-15T12:23:13.794Z,13.91
2023-11-15T12:25:54.037Z,13.66
2023-11-15T12:28:27.206Z,13.70
2023-11-15T12:30:58.826Z,13.61
2023-11-15T12:33:27.649Z,13.16
2023-11-15T12:35:54.862Z,13.41
2023-11-15T12:38:21.515Z,13.01
2023-11-15T12:40:48.766Z,12.90
2023-11-15T12:43:23.822Z,13.21
2023-11-15T12:45:57.170Z,13.12
2023-11-15T12:48:24.685Z,13.15
2023-11-15T12:51:00.538Z,13.16
2023-11-15T12:53:31.536Z,13.14
2023-11-15T12:55:58.766Z,12.93
2023-11-15T12:58:28.186Z,13.39
2023-11-15T13:01:03.945Z,13.61
2023-11-15T13:03:34.167Z,13.87
2023-11-15T13:06:10.536Z,14.32
2023-11-15T13:08:38.726Z,14.50
2023-11-15T13:11:10.609Z,14.81
2023-11-15T13:13:38.124Z,15.07
2023-11-15T13:16:04.915Z,15.22
2023-11-15T13:18:31.489Z,15.56
2023-11-15T13:20:59.022Z,15.74
2023-11-15T13:23:26.353Z,15.93
2023-11-15T13:25:54.691Z,16.10
2023-11-15T13:28:21.983Z,16.13
2023-11-15T13:30:48.441Z,16.22
2023-11-15T13:33:18.617Z,16.23
2023-11-15T13:35:46.673Z,16.15
2023-11-15T13:38:13.210Z,15.70
2023-11-15T13:40:42.686Z,15.65
2023-11-15T13:43:09.337Z,15.68
2023-11-15T13:45:35.862Z,15.38
2023-11-15T13:48:03.973Z,15.25
2023-11-15T13:50:30.798Z,15.12
2023-11-15T13:52:57.248Z,14.86
2023-11-15T13:55:23.774Z,14.80
2023-11-15T13:57:52.037Z,14.64
2023-11-15T14:00:24.770Z,14.48
2023-11-15T14:02:52.731Z,14.30
2023-11-15T14:05:20.355Z,14.09
2023-11-15T14:07:47.035Z,13.99
2023-11-15T14:10:20.481Z,13.88
2023-11-15T14:12:47.543Z,13.76
2023-11-15T14:15:14.189Z,13.65
2023-11-15T14:17:40.771Z,13.55
2023-11-15T14:20:08.094Z,13.37
2023-11-15T14:22:34.555Z,13.29
2023-11-15T14:25:04.605Z,13.19
2023-11-15T14:27:31.235Z,12.73
2023-11-15T14:29:57.724Z,13.00
2023-11-15T14:32:24.244Z,12.73
2023-11-15T14:34:51.191Z,12.90
2023-11-15T14:37:17.685Z,12.62
2023-11-15T14:39:44.436Z,12.76
2023-11-15T14:42:12.030Z,12.69
2023-11-15T14:44:40.170Z,12.63
2023-11-15T14:47:09.793Z,12.47
2023-11-15T14:49:36.708Z,12.42
2023-11-15T14:52:13.335Z,12.48
2023-11-15T14:54:44.315Z,12.40
2023-11-15T14:57:11.899Z,12.37
2023-11-15T14:59:47.814Z,12.31
2023-11-15T15:02:14.958Z,12.14
2023-11-15T15:04:45.548Z,11.96
2023-11-15T15:07:14.537Z,12.03
2023-11-15T15:09:41.316Z,12.12
2023-11-15T15:12:09.249Z,11.93
2023-11-15T15:14:36.525Z,12.00
2023-11-15T15:17:07.170Z,11.99
2023-11-15T15:19:36.104Z,11.93
2023-11-15T15:22:02.901Z,11.90
2023-11-15T15:24:29.528Z,11.76
2023-11-15T15:26:56.600Z,11.79
2023-11-15T15:29:27.538Z,11.77
2023-11-15T15:31:54.694Z,11.77
2023-11-15T15:34:23.230Z,11.31
2023-11-15T15:36:50.208Z,11.75
2023-11-15T15:39:20.266Z,11.74
2023-11-15T15:41:47.086Z,11.84
2023-11-15T15:44:13.649Z,11.69
2023-11-15T15:46:40.216Z,11.51
2023-11-15T15:49:06.824Z,11.54
2023-11-15T15:51:33.375Z,11.52
2023-11-15T15:54:00.130Z,11.50
2023-11-15T15:56:30.595Z,11.18
2023-11-15T15:58:57.206Z,11.38
2023-11-15T16:01:30.176Z,11.37
2023-11-15T16:03:56.719Z,11.28
2023-11-15T16:06:23.544Z,11.13
2023-11-15T16:08:50.017Z,11.25
2023-11-15T16:11:16.894Z,11.25
2023-11-15T16:13:43.545Z,11.19
2023-11-15T16:16:10.123Z,11.05
2023-11-15T16:18:36.869Z,11.09
2023-11-15T16:21:03.765Z,11.23
2023-11-15T16:23:30.311Z,11.24
2023-11-15T16:25:59.060Z,11.24
2023-11-15T16:28:25.796Z,11.18
2023-11-15T16:30:52.380Z,11.06
2023-11-15T16:33:18.915Z,11.09
2023-11-15T16:35:45.437Z,11.08
2023-11-15T16:38:12.189Z,11.05
2023-11-15T16:40:40.268Z,10.80
2023-11-15T16:43:08.170Z,10.88
2023-11-15T16:45:36.183Z,10.91
2023-11-15T16:48:02.950Z,10.86
2023-11-15T16:50:29.543Z,10.83
2023-11-15T16:52:56.008Z,10.83
2023-11-15T16:55:22.879Z,10.80
2023-11-15T16:57:49.447Z,10.77
2023-11-15T17:00:17.817Z,10.74
2023-11-15T17:02:47.827Z,10.68
2023-11-15T17:05:15.139Z,10.57
2023-11-15T17:07:41.583Z,10.71
2023-11-15T17:10:08.449Z,10.70
2023-11-15T17:12:34.865Z,10.69
2023-11-15T17:15:01.393Z,10.68
2023-11-15T17:17:29.716Z,10.67
2023-11-15T17:19:58.362Z,10.63
2023-11-15T17:22:24.962Z,10.66
2023-11-15T17:24:53.840Z,10.65
2023-11-15T17:27:20.941Z,10.63
2023-11-15T17:29:49.405Z,10.62
2023-11-15T17:32:16.457Z,10.11
2023-11-15T17:34:43.118Z,10.61
2023-11-15T17:37:09.735Z,10.57
2023-11-15T17:39:37.309Z,10.58
2023-11-15T17:42:05.726Z,10.51
2023-11-15T17:44:32.393Z,10.62
2023-11-15T17:46:59.149Z,10.62
2023-11-15T17:49:25.673Z,10.49
2023-11-15T17:51:52.157Z,10.58
2023-11-15T17:54:19.968Z,10.66
2023-11-15T17:56:46.588Z,10.70
2023-11-15T17:59:13.917Z,10.55
2023-11-15T18:01:40.577Z,10.76
2023-11-15T18:04:15.935Z,10.67
2023-11-15T18:06:43.477Z,10.80
2023-11-15T18:09:11.190Z,10.59
2023-11-15T18:11:37.915Z,10.81
2023-11-15T18:14:04.973Z,10.82
2023-11-15T18:16:32.307Z,10.57
2023-11-15T18:19:05.612Z,10.78
2023-11-15T18:21:32.795Z,10.78
2023-11-15T18:24:00.536Z,10.75
2023-11-15T18:26:32.784Z,10.75
2023-11-15T18:28:59.257Z,10.74
2023-11-15T18:31:27.328Z,10.48
2023-11-15T18:33:57.348Z,10.68
2023-11-15T18:36:24.226Z,10.72
2023-11-15T18:38:52.550Z,10.70
2023-11-15T18:41:19.284Z,10.68
2023-11-15T18:43:46.771Z,10.74
2023-11-15T18:46:13.327Z,10.73
2023-11-15T18:48:42.360Z,10.78
2023-11-15T18:51:09.062Z,10.50
2023-11-15T18:53:35.653Z,10.83
2023-11-15T18:56:02.178Z,10.64
2023-11-15T18:58:28.798Z,10.64
2023-11-15T19:00:55.368Z,10.86
2023-11-15T19:03:21.982Z,10.71
2023-11-15T19:05:48.522Z,10.85
2023-11-15T19:08:16.801Z,10.67
2023-11-15T19:10:43.509Z,10.69
2023-11-15T19:13:10.656Z,10.84
2023-11-15T19:15:38.853Z,10.88
2023-11-15T19:18:07.003Z,10.74
2023-11-15T19:20:35.459Z,10.89
2023-11-15T19:23:01.931Z,10.91
2023-11-15T19:25:28.609Z,10.88
2023-11-15T19:27:56.777Z,10.94
2023-11-15T19:30:24.430Z,10.95
2023-11-15T19:32:52.314Z,11.00
2023-11-15T19:35:20.462Z,10.89
2023-11-15T19:37:47.551Z,10.97
2023-11-15T19:40:15.934Z,10.88
2023-11-15T19:42:42.636Z,11.00
2023-11-15T19:45:12.194Z,10.67
2023-11-15T19:47:40.627Z,11.11
2023-11-15T19:50:10.957Z,11.08
2023-11-15T19:52:37.452Z,11.28
2023-11-15T19:55:08.397Z,11.13
2023-11-15T19:57:38.324Z,11.20
2023-11-15T20:00:13.175Z,11.06
2023-11-15T20:02:46.628Z,11.26
2023-11-15T20:05:14.476Z,11.27
2023-11-15T20:07:41.105Z,11.08
2023-11-15T20:10:11.142Z,11.02
2023-11-15T20:12:41.188Z,11.36
2023-11-15T20:15:11.061Z,11.37
2023-11-15T20:17:38.754Z,11.34
2023-11-15T20:20:05.740Z,11.34
2023-11-15T20:22:42.055Z,11.32
2023-11-15T20:25:15.292Z,11.44
2023-11-15T20:27:41.766Z,11.42
2023-11-15T20:30:09.167Z,11.38
2023-11-15T20:32:36.052Z,11.46
2023-11-15T20:35:02.556Z,11.49
2023-11-15T20:37:28.967Z,11.47
2023-11-15T20:39:55.615Z,11.40
2023-11-15T20:42:22.115Z,11.48
2023-11-15T20:44:48.699Z,11.49
2023-11-15T20:47:15.268Z,11.45
2023-11-15T20:49:42.883Z,11.52
2023-11-15T20:52:09.491Z,11.51
2023-11-15T20:54:36.561Z,11.48
2023-11-15T20:57:03.104Z,11.39
2023-11-15T20:59:29.722Z,11.49
2023-11-15T21:01:56.199Z,11.51
2023-11-15T21:04:25.084Z,11.53
2023-11-15T21:06:53.792Z,11.35
2023-11-15T21:09:20.293Z,11.48
2023-11-15T21:11:46.881Z,11.52
2023-11-15T21:14:13.498Z,11.51
2023-11-15T21:16:40.264Z,11.41
2023-11-15T21:19:08.548Z,11.46
2023-11-15T21:21:36.745Z,11.56
2023-11-15T21:24:07.130Z,11.58
2023-11-15T21:26:33.648Z,11.55
2023-11-15T21:29:03.992Z,11.54
2023-11-15T21:31:30.463Z,11.48
2023-11-15T21:33:56.888Z,11.54
2023-11-15T21:36:23.367Z,11.52
2023-11-15T21:38:49.836Z,11.52
2023-11-15T21:41:17.491Z,11.16
2023-11-15T21:43:44.106Z,11.56
2023-11-15T21:46:10.846Z,11.55
2023-11-15T21:48:38.239Z,11.51
2023-11-15T21:51:06.005Z,11.17
2023-11-15T21:53:33.861Z,11.52
2023-11-15T21:56:02.722Z,11.56
2023-11-15T21:58:32.565Z,11.48
2023-11-15T22:00:59.052Z,11.60
2023-11-15T22:03:25.592Z,11.60
2023-11-15T22:05:52.239Z,11.62
2023-11-15T22:08:18.972Z,11.63
2023-11-15T22:10:45.575Z,11.68
2023-11-15T22:13:12.483Z,11.73
2023-11-15T22:15:39.211Z,11.72
2023-11-15T22:18:05.824Z,11.75
2023-11-15T22:20:32.321Z,11.75
2023-11-15T22:23:00.183Z,11.78
2023-11-15T22:25:26.706Z,11.81
2023-11-15T22:27:53.141Z,11.71
2023-11-15T22:30:19.824Z,11.83
2023-11-15T22:32:46.981Z,11.83
2023-11-15T22:35:13.592Z,11.82
2023-11-15T22:37:40.137Z,11.82
2023-11-15T22:40:07.233Z,11.82
2023-11-15T22:42:33.848Z,11.83
2023-11-15T22:45:00.483Z,11.85
2023-11-15T22:47:27.062Z,11.81
2023-11-15T22:49:53.814Z,11.84
2023-11-15T22:52:20.326Z,11.70
2023-11-15T22:54:46.793Z,11.80
2023-11-15T22:57:13.791Z,11.75
2023-11-15T22:59:40.737Z,11.59
2023-11-15T23:02:08.082Z,11.42
2023-11-15T23:04:34.746Z,11.70
2023-11-15T23:07:02.222Z,11.57
2023-11-15T23:09:28.890Z,11.67
2023-11-15T23:11:55.576Z,11.61
2023-11-15T23:14:22.165Z,11.60
2023-11-15T23:16:48.658Z,11.58
2023-11-15T23:19:16.427Z,11.30
2023-11-15T23:21:51.122Z,11.43
2023-11-15T23:24:27.712Z,11.49
2023-11-15T23:26:59.353Z,11.29
2023-11-15T23:29:28.283Z,11.59
2023-11-15T23:31:56.655Z,11.38
2023-11-15T23:34:23.593Z,11.48
2023-11-15T23:36:51.456Z,11.52
2023-11-15T23:39:19.060Z,11.47
2023-11-15T23:41:45.613Z,11.42
2023-11-15T23:44:12.095Z,11.11
2023-11-15T23:46:39.174Z,11.47
2023-11-15T23:49:07.542Z,11.25
2023-11-15T23:51:34.280Z,11.47
2023-11-15T23:54:00.995Z,11.43
2023-11-15T23:56:27.514Z,11.47
2023-11-15T23:58:54.368Z,11.37
